createdAt,value
2018-09-22T00:00:44.603Z,8.82
2018-09-22T00:01:50.826Z,8.88
2018-09-22T00:02:57.087Z,8.86
2018-09-22T00:04:02.874Z,8.83
2018-09-22T00:05:09.123Z,8.88
2018-09-22T00:06:15.887Z,9.02
2018-09-22T00:07:23.162Z,9.01
2018-09-22T00:08:28.416Z,9.06
2018-09-22T00:09:34.703Z,9.12
2018-09-22T00:10:40.946Z,9.17
2018-09-22T00:11:46.705Z,9.12
2018-09-22T00:12:53.465Z,9.15
2018-09-22T00:13:59.741Z,9.17
2018-09-22T00:15:06.008Z,9.16
2018-09-22T00:16:12.274Z,9.06
2018-09-22T00:17:18.539Z,8.91
2018-09-22T00:18:24.804Z,9.06
2018-09-22T00:19:30.574Z,9.03
2018-09-22T00:20:37.333Z,8.95
2018-09-22T00:21:43.610Z,8.89
2018-09-22T00:22:49.855Z,8.82
2018-09-22T00:23:55.624Z,8.87
2018-09-22T00:25:01.893Z,8.90
2018-09-22T00:26:08.143Z,8.89
2018-09-22T00:27:14.980Z,8.99
2018-09-22T00:28:22.168Z,9.16
2018-09-22T00:29:27.446Z,9.13
2018-09-22T00:30:33.702Z,9.21
2018-09-22T00:31:39.972Z,9.28
2018-09-22T00:32:46.223Z,9.27
2018-09-22T00:33:52.501Z,9.20
2018-09-22T00:34:58.761Z,9.08
2018-09-22T00:36:05.011Z,8.99
2018-09-22T00:37:10.782Z,8.99
2018-09-22T00:38:17.054Z,9.03
2018-09-22T00:39:23.823Z,9.05
2018-09-22T00:40:29.578Z,9.10
2018-09-22T00:41:36.342Z,9.05
2018-09-22T00:42:42.611Z,9.03
2018-09-22T00:43:48.867Z,8.98
2018-09-22T00:44:55.153Z,9.02
2018-09-22T00:46:01.400Z,8.95
2018-09-22T00:47:07.688Z,8.89
2018-09-22T00:48:13.947Z,8.87
2018-09-22T00:49:20.221Z,8.79
2018-09-22T00:50:26.488Z,8.71
2018-09-22T00:51:32.757Z,8.62
2018-09-22T00:52:39.017Z,8.53
2018-09-22T00:53:45.289Z,8.54
2018-09-22T00:54:51.557Z,8.50
2018-09-22T00:55:57.813Z,8.38
2018-09-22T00:57:04.067Z,8.23
2018-09-22T00:58:10.324Z,8.20
2018-09-22T00:59:16.590Z,8.17
2018-09-22T01:00:22.831Z,8.13
2018-09-22T01:01:29.082Z,8.17
2018-09-22T01:02:34.852Z,8.15
2018-09-22T01:03:41.597Z,8.11
2018-09-22T01:04:47.854Z,8.06
2018-09-22T01:05:54.102Z,8.08
2018-09-22T01:07:01.353Z,8.22
2018-09-22T01:08:06.116Z,8.24
2018-09-22T01:09:12.861Z,8.39
2018-09-22T01:10:19.111Z,8.41
2018-09-22T01:11:25.344Z,8.36
2018-09-22T01:12:31.606Z,8.28
2018-09-22T01:13:37.832Z,8.19
2018-09-22T01:14:44.086Z,8.12
2018-09-22T01:15:50.350Z,8.06
2018-09-22T01:16:56.577Z,8.00
2018-09-22T01:18:02.843Z,7.98
2018-09-22T01:19:08.568Z,7.88
2018-09-22T01:20:15.299Z,7.75
2018-09-22T01:21:21.549Z,7.79
2018-09-22T01:22:27.785Z,8.02
2018-09-22T01:23:34.004Z,8.10
2018-09-22T01:24:40.253Z,7.97
2018-09-22T01:25:46.482Z,7.81
2018-09-22T01:26:52.717Z,7.69
2018-09-22T01:27:58.961Z,7.67
2018-09-22T01:29:05.266Z,7.60
2018-09-22T01:30:11.426Z,7.58
2018-09-22T01:31:17.647Z,7.51
2018-09-22T01:32:23.879Z,7.49
2018-09-22T01:33:29.620Z,7.47
2018-09-22T01:34:35.854Z,7.33
2018-09-22T01:35:42.595Z,7.27
2018-09-22T01:36:55.736Z,7.35
2018-09-22T01:38:02.802Z,7.34
2018-09-22T01:39:09.517Z,7.28
2018-09-22T01:40:15.742Z,7.23
2018-09-22T01:41:21.940Z,7.16
2018-09-22T01:42:28.270Z,7.15
2018-09-22T01:43:34.403Z,7.24
2018-09-22T01:44:40.609Z,7.23
2018-09-22T01:45:46.824Z,7.14
2018-09-22T01:46:52.541Z,7.04
2018-09-22T01:47:59.248Z,6.87
2018-09-22T01:49:05.463Z,6.81
2018-09-22T01:50:11.672Z,6.87
2018-09-22T01:51:17.885Z,6.88
2018-09-22T01:52:24.120Z,6.89
2018-09-22T01:53:30.314Z,7.02
2018-09-22T01:54:36.521Z,7.20
2018-09-22T01:55:42.716Z,7.25
2018-09-22T01:56:48.926Z,7.14
2018-09-22T01:57:55.124Z,7.05
2018-09-22T01:59:01.334Z,6.89
2018-09-22T02:00:07.533Z,6.83
2018-09-22T02:01:13.743Z,6.69
2018-09-22T02:02:19.955Z,6.55
2018-09-22T02:03:25.654Z,6.39
2018-09-22T02:04:32.359Z,6.33
2018-09-22T02:05:38.564Z,6.39
2018-09-22T02:06:44.752Z,6.30
2018-09-22T02:07:50.956Z,6.19
2018-09-22T02:08:57.147Z,6.25
2018-09-22T02:10:03.362Z,6.27
2018-09-22T02:11:09.551Z,6.27
2018-09-22T02:12:15.751Z,6.30
2018-09-22T02:13:21.445Z,6.38
2018-09-22T02:14:28.130Z,6.39
2018-09-22T02:15:33.824Z,6.43
2018-09-22T02:16:40.520Z,6.56
2018-09-22T02:17:46.218Z,6.57
2018-09-22T02:18:52.902Z,6.54
2018-09-22T02:19:59.105Z,6.60
2018-09-22T02:21:05.304Z,6.75
2018-09-22T02:22:11.502Z,6.87
2018-09-22T02:23:17.699Z,6.84
2018-09-22T02:24:23.903Z,6.76
2018-09-22T02:25:30.099Z,6.61
2018-09-22T02:26:36.305Z,6.49
2018-09-22T02:27:42.493Z,6.44
2018-09-22T02:28:48.691Z,6.37
2018-09-22T02:29:54.908Z,6.35
2018-09-22T02:31:01.100Z,6.37
2018-09-22T02:32:07.297Z,6.45
2018-09-22T02:33:13.500Z,6.45
2018-09-22T02:34:19.690Z,6.43
2018-09-22T02:35:25.908Z,6.47
2018-09-22T02:36:32.117Z,6.43
2018-09-22T02:37:38.304Z,6.39
2018-09-22T02:38:44.486Z,6.28
2018-09-22T02:39:50.301Z,6.21
2018-09-22T02:40:56.875Z,6.15
2018-09-22T02:42:03.070Z,6.13
2018-09-22T02:43:09.268Z,6.09
2018-09-22T02:44:15.494Z,6.12
2018-09-22T02:45:21.675Z,6.10
2018-09-22T02:46:27.873Z,6.11
2018-09-22T02:47:34.078Z,6.11
2018-09-22T02:48:40.282Z,6.13
2018-09-22T02:49:46.467Z,6.19
2018-09-22T02:50:52.652Z,6.26
2018-09-22T02:51:58.851Z,6.42
2018-09-22T02:53:05.036Z,6.46
2018-09-22T02:54:11.256Z,6.47
2018-09-22T02:55:17.441Z,6.47
2018-09-22T02:56:23.650Z,6.39
2018-09-22T02:57:29.830Z,6.33
2018-09-22T02:58:36.027Z,6.36
2018-09-22T02:59:42.252Z,6.41
2018-09-22T03:00:48.431Z,6.49
2018-09-22T03:01:54.638Z,6.55
2018-09-22T03:03:00.830Z,6.53
2018-09-22T03:04:07.046Z,6.54
2018-09-22T03:05:13.275Z,6.55
2018-09-22T03:06:19.448Z,6.51
2018-09-22T03:07:25.652Z,6.47
2018-09-22T03:08:31.890Z,6.48
2018-09-22T03:09:38.065Z,6.47
2018-09-22T03:10:44.287Z,6.46
2018-09-22T03:11:50.471Z,6.49
2018-09-22T03:12:56.689Z,6.53
2018-09-22T03:14:02.874Z,6.57
2018-09-22T03:15:09.287Z,6.50
2018-09-22T03:16:15.296Z,6.49
2018-09-22T03:17:21.501Z,6.56
2018-09-22T03:18:28.698Z,6.62
2018-09-22T03:19:33.903Z,6.64
2018-09-22T03:20:40.129Z,6.69
2018-09-22T03:21:46.330Z,6.72
2018-09-22T03:22:52.533Z,6.72
2018-09-22T03:23:58.743Z,6.67
2018-09-22T03:25:04.969Z,6.68
2018-09-22T03:26:11.164Z,6.70
2018-09-22T03:27:17.350Z,6.74
2018-09-22T03:28:23.067Z,6.74
2018-09-22T03:29:29.768Z,6.70
2018-09-22T03:30:35.993Z,6.74
2018-09-22T03:31:42.186Z,6.78
2018-09-22T03:32:48.404Z,6.91
2018-09-22T03:33:54.605Z,6.96
2018-09-22T03:35:00.831Z,7.02
2018-09-22T03:36:07.041Z,7.17
2018-09-22T03:37:13.273Z,7.17
2018-09-22T03:38:19.452Z,7.17
2018-09-22T03:39:25.656Z,7.13
2018-09-22T03:40:31.877Z,7.08
2018-09-22T03:41:38.093Z,7.08
2018-09-22T03:42:44.301Z,7.09
2018-09-22T03:43:50.502Z,7.16
2018-09-22T03:44:56.715Z,7.26
2018-09-22T03:46:02.926Z,7.29
2018-09-22T03:47:09.138Z,7.34
2018-09-22T03:48:15.365Z,7.41
2018-09-22T03:49:21.573Z,7.45
2018-09-22T03:50:27.775Z,7.49
2018-09-22T03:51:34.000Z,7.43
2018-09-22T03:52:40.220Z,7.33
2018-09-22T03:53:46.428Z,7.24
2018-09-22T03:54:52.648Z,7.20
2018-09-22T03:55:58.851Z,7.20
2018-09-22T03:57:04.574Z,7.32
2018-09-22T03:58:11.292Z,7.42
2018-09-22T03:59:17.511Z,7.40
2018-09-22T04:00:23.757Z,7.35
2018-09-22T04:01:29.451Z,7.36
2018-09-22T04:02:36.149Z,7.37
2018-09-22T04:03:42.432Z,7.28
2018-09-22T04:04:48.605Z,7.26
2018-09-22T04:05:54.827Z,7.26
2018-09-22T04:07:01.037Z,7.18
2018-09-22T04:08:07.268Z,7.22
2018-09-22T04:09:13.462Z,7.25
2018-09-22T04:10:19.683Z,7.39
2018-09-22T04:11:25.894Z,7.33
2018-09-22T04:12:32.121Z,7.25
2018-09-22T04:13:39.337Z,7.15
2018-09-22T04:14:44.562Z,7.09
2018-09-22T04:15:50.779Z,6.99
2018-09-22T04:16:56.992Z,6.89
2018-09-22T04:18:03.285Z,6.81
2018-09-22T04:19:09.435Z,6.76
2018-09-22T04:20:15.656Z,6.73
2018-09-22T04:21:21.842Z,6.74
2018-09-22T04:22:28.367Z,6.69
2018-09-22T04:23:34.274Z,6.68
2018-09-22T04:24:40.487Z,6.78
2018-09-22T04:25:46.716Z,6.81
2018-09-22T04:26:52.922Z,6.80
2018-09-22T04:27:59.139Z,6.77
2018-09-22T04:29:05.367Z,6.74
2018-09-22T04:30:11.569Z,6.74
2018-09-22T04:31:17.284Z,6.74
2018-09-22T04:32:23.996Z,6.74
2018-09-22T04:33:30.333Z,6.74
2018-09-22T04:34:36.411Z,6.69
2018-09-22T04:35:42.644Z,6.69
2018-09-22T04:36:48.848Z,6.70
2018-09-22T04:37:55.069Z,6.65
2018-09-22T04:39:01.273Z,6.60
2018-09-22T04:40:07.498Z,6.59
2018-09-22T04:41:13.696Z,6.57
2018-09-22T04:42:19.910Z,6.54
2018-09-22T04:43:26.120Z,6.54
2018-09-22T04:44:32.335Z,6.53
2018-09-22T04:45:38.546Z,6.57
2018-09-22T04:46:44.742Z,6.60
2018-09-22T04:47:50.962Z,6.60
2018-09-22T04:48:57.280Z,6.57
2018-09-22T04:50:03.387Z,6.53
2018-09-22T04:51:09.585Z,6.49
2018-09-22T04:52:15.796Z,6.46
2018-09-22T04:53:22.012Z,6.48
2018-09-22T04:54:28.229Z,6.46
2018-09-22T04:55:33.916Z,6.47
2018-09-22T04:56:40.607Z,6.48
2018-09-22T04:57:46.833Z,6.50
2018-09-22T04:58:53.034Z,6.52
2018-09-22T04:59:59.306Z,6.50
2018-09-22T05:01:05.445Z,6.51
2018-09-22T05:02:11.650Z,6.51
2018-09-22T05:03:17.847Z,6.48
2018-09-22T05:04:24.054Z,6.51
2018-09-22T05:05:29.770Z,6.61
2018-09-22T05:06:37.459Z,6.65
2018-09-22T05:07:42.665Z,6.66
2018-09-22T05:08:48.873Z,6.66
2018-09-22T05:09:55.063Z,6.68
2018-09-22T05:11:01.286Z,6.74
2018-09-22T05:12:07.485Z,6.79
2018-09-22T05:13:13.285Z,6.82
2018-09-22T05:14:20.894Z,6.86
2018-09-22T05:15:26.113Z,6.88
2018-09-22T05:16:32.309Z,6.93
2018-09-22T05:17:38.509Z,6.92
2018-09-22T05:18:44.715Z,7.00
2018-09-22T05:19:50.930Z,7.03
2018-09-22T05:20:57.143Z,7.09
2018-09-22T05:22:03.342Z,7.13
2018-09-22T05:23:09.557Z,7.17
2018-09-22T05:24:15.765Z,7.17
2018-09-22T05:25:21.999Z,7.21
2018-09-22T05:26:28.655Z,7.29
2018-09-22T05:27:34.395Z,7.30
2018-09-22T05:28:40.623Z,7.33
2018-09-22T05:29:46.818Z,7.35
2018-09-22T05:30:53.052Z,7.39
2018-09-22T05:31:59.277Z,7.40
2018-09-22T05:33:05.462Z,7.43
2018-09-22T05:34:11.688Z,7.45
2018-09-22T05:35:17.919Z,7.48
2018-09-22T05:36:24.120Z,7.49
2018-09-22T05:37:30.331Z,7.53
2018-09-22T05:38:36.065Z,7.60
2018-09-22T05:39:42.316Z,7.66
2018-09-22T05:40:49.007Z,7.75
2018-09-22T05:41:55.274Z,7.80
2018-09-22T05:43:00.941Z,7.85
2018-09-22T05:44:07.278Z,7.90
2018-09-22T05:45:13.883Z,7.91
2018-09-22T05:46:19.616Z,7.91
2018-09-22T05:47:26.336Z,7.94
2018-09-22T05:48:32.552Z,7.96
2018-09-22T05:49:38.777Z,7.95
2018-09-22T05:50:45.004Z,7.96
2018-09-22T05:51:51.278Z,8.01
2018-09-22T05:52:57.465Z,8.02
2018-09-22T05:54:03.672Z,8.01
2018-09-22T05:55:09.915Z,7.99
2018-09-22T05:56:17.127Z,8.01
2018-09-22T05:57:22.377Z,8.01
2018-09-22T05:58:28.596Z,8.05
2018-09-22T05:59:34.832Z,8.10
2018-09-22T06:00:41.095Z,8.13
2018-09-22T06:01:48.293Z,8.14
2018-09-22T06:02:53.544Z,8.18
2018-09-22T06:03:59.955Z,8.24
2018-09-22T06:05:05.997Z,8.26
2018-09-22T06:06:12.248Z,8.29
2018-09-22T06:07:17.987Z,8.33
2018-09-22T06:08:24.222Z,8.39
2018-09-22T06:09:31.008Z,8.40
2018-09-22T06:10:37.221Z,8.44
2018-09-22T06:11:43.458Z,8.49
2018-09-22T06:12:49.686Z,8.55
2018-09-22T06:13:55.949Z,8.61
2018-09-22T06:15:03.278Z,8.70
2018-09-22T06:16:08.444Z,8.76
2018-09-22T06:17:14.701Z,8.81
2018-09-22T06:18:20.958Z,8.86
2018-09-22T06:19:27.274Z,8.99
2018-09-22T06:20:33.468Z,9.11
2018-09-22T06:21:39.732Z,9.19
2018-09-22T06:22:45.992Z,9.22
2018-09-22T06:23:51.758Z,9.25
2018-09-22T06:24:58.014Z,9.30
2018-09-22T06:26:05.289Z,9.35
2018-09-22T06:27:11.044Z,9.42
2018-09-22T06:28:17.320Z,9.47
2018-09-22T06:29:23.577Z,9.54
2018-09-22T06:30:29.855Z,9.61
2018-09-22T06:31:36.107Z,9.65
2018-09-22T06:32:42.398Z,9.73
2018-09-22T06:33:48.663Z,9.79
2018-09-22T06:34:54.941Z,9.86
2018-09-22T06:36:01.277Z,9.91
2018-09-22T06:37:07.509Z,9.94
2018-09-22T06:38:13.782Z,9.96
2018-09-22T06:39:20.059Z,9.97
2018-09-22T06:40:26.386Z,10.00
2018-09-22T06:41:32.630Z,10.04
2018-09-22T06:42:38.913Z,10.07
2018-09-22T06:43:45.277Z,10.09
2018-09-22T06:44:51.491Z,10.16
2018-09-22T06:45:57.279Z,10.20
2018-09-22T06:47:04.057Z,10.27
2018-09-22T06:48:10.349Z,10.32
2018-09-22T06:49:16.639Z,10.38
2018-09-22T06:50:22.947Z,10.44
2018-09-22T06:51:29.269Z,10.50
2018-09-22T06:52:35.514Z,10.56
2018-09-22T06:53:41.824Z,10.64
2018-09-22T06:54:47.642Z,10.73
2018-09-22T06:55:54.414Z,10.79
2018-09-22T06:57:00.217Z,10.87
2018-09-22T06:58:07.012Z,10.93
2018-09-22T06:59:13.325Z,10.96
2018-09-22T07:00:19.639Z,10.99
2018-09-22T07:01:25.963Z,10.98
2018-09-22T07:02:32.248Z,10.99
2018-09-22T07:03:38.547Z,11.04
2018-09-22T07:04:44.869Z,11.09
2018-09-22T07:05:51.173Z,11.16
2018-09-22T07:06:56.999Z,11.25
2018-09-22T07:08:03.792Z,11.35
2018-09-22T07:09:10.134Z,11.46
2018-09-22T07:10:16.455Z,11.61
2018-09-22T07:11:22.461Z,11.71
2018-09-22T07:12:28.712Z,11.79
2018-09-22T07:13:35.445Z,11.85
2018-09-22T07:14:41.258Z,11.93
2018-09-22T07:15:48.097Z,11.99
2018-09-22T07:16:53.931Z,12.04
2018-09-22T07:18:00.763Z,12.06
2018-09-22T07:19:07.109Z,12.14
2018-09-22T07:20:12.941Z,12.19
2018-09-22T07:21:19.297Z,12.25
2018-09-22T07:22:26.137Z,12.28
2018-09-22T07:23:32.454Z,12.30
2018-09-22T07:24:38.798Z,12.31
2018-09-22T07:25:45.170Z,12.33
2018-09-22T07:26:51.497Z,12.35
2018-09-22T07:27:57.853Z,12.35
2018-09-22T07:29:04.196Z,12.37
2018-09-22T07:30:10.078Z,12.41
2018-09-22T07:31:16.445Z,12.43
2018-09-22T07:32:23.267Z,12.42
2018-09-22T07:33:29.115Z,12.47
2018-09-22T07:34:35.971Z,12.50
2018-09-22T07:35:42.334Z,12.59
2018-09-22T07:36:48.681Z,12.64
2018-09-22T07:37:55.041Z,12.71
2018-09-22T07:39:01.394Z,12.79
2018-09-22T07:40:07.753Z,12.86
2018-09-22T07:41:14.123Z,12.90
2018-09-22T07:42:20.000Z,12.92
2018-09-22T07:43:26.848Z,12.91
2018-09-22T07:44:33.281Z,12.96
2018-09-22T07:45:39.176Z,13.01
2018-09-22T07:46:45.449Z,13.09
2018-09-22T07:47:51.841Z,13.12
2018-09-22T07:48:58.712Z,13.20
2018-09-22T07:50:05.073Z,13.25
2018-09-22T07:51:10.976Z,13.30
2018-09-22T07:52:17.817Z,13.37
2018-09-22T07:53:23.714Z,13.44
2018-09-22T07:54:30.580Z,13.54
2018-09-22T07:55:36.461Z,13.59
2018-09-22T07:56:42.835Z,13.63
2018-09-22T07:57:49.717Z,13.67
2018-09-22T07:58:56.099Z,13.73
2018-09-22T08:00:02.801Z,13.75
2018-09-22T08:01:08.380Z,13.73
2018-09-22T08:02:15.281Z,13.69
2018-09-22T08:03:21.278Z,13.62
2018-09-22T08:04:28.058Z,13.52
2018-09-22T08:05:34.429Z,13.49
2018-09-22T08:06:40.814Z,13.50
2018-09-22T08:07:47.278Z,13.45
2018-09-22T08:08:53.109Z,13.50
2018-09-22T08:09:59.487Z,13.54
2018-09-22T08:11:06.376Z,13.62
2018-09-22T08:12:12.751Z,13.65
2018-09-22T08:13:19.276Z,13.68
2018-09-22T08:14:25.550Z,13.72
2018-09-22T08:15:31.950Z,13.80
2018-09-22T08:16:38.377Z,13.90
2018-09-22T08:17:44.264Z,14.03
2018-09-22T08:18:50.666Z,14.04
2018-09-22T08:19:57.081Z,14.01
2018-09-22T08:21:03.990Z,13.98
2018-09-22T08:22:10.374Z,13.93
2018-09-22T08:23:16.789Z,13.87
2018-09-22T08:24:22.710Z,13.83
2018-09-22T08:25:29.109Z,13.77
2018-09-22T08:26:36.020Z,13.78
2018-09-22T08:27:42.417Z,13.78
2018-09-22T08:28:48.334Z,13.78
2018-09-22T08:29:55.272Z,13.81
2018-09-22T08:31:01.654Z,13.84
2018-09-22T08:32:07.568Z,13.86
2018-09-22T08:33:13.970Z,13.90
2018-09-22T08:34:20.880Z,13.93
2018-09-22T08:35:27.303Z,13.95
2018-09-22T08:36:33.383Z,14.02
2018-09-22T08:37:40.129Z,14.05
2018-09-22T08:38:46.547Z,14.08
2018-09-22T08:39:52.468Z,14.17
2018-09-22T08:40:59.376Z,14.24
2018-09-22T08:42:05.305Z,14.27
2018-09-22T08:43:11.731Z,14.31
2018-09-22T08:44:18.662Z,14.40
2018-09-22T08:45:24.564Z,14.54
2018-09-22T08:46:31.498Z,14.60
2018-09-22T08:47:37.425Z,14.67
2018-09-22T08:48:43.865Z,14.75
2018-09-22T08:49:50.816Z,14.85
2018-09-22T08:50:57.338Z,14.86
2018-09-22T08:52:03.660Z,14.89
2018-09-22T08:53:10.086Z,14.93
2018-09-22T08:54:16.043Z,14.99
2018-09-22T08:55:22.471Z,15.17
2018-09-22T08:56:29.422Z,15.31
2018-09-22T08:57:35.381Z,15.46
2018-09-22T08:58:42.320Z,15.50
2018-09-22T08:59:48.773Z,15.44
2018-09-22T09:00:55.273Z,15.40
2018-09-22T09:02:01.301Z,15.36
2018-09-22T09:03:08.142Z,15.33
2018-09-22T09:04:14.596Z,15.37
2018-09-22T09:05:21.056Z,15.46
2018-09-22T09:06:27.512Z,15.52
2018-09-22T09:07:33.476Z,15.56
2018-09-22T09:08:40.436Z,15.63
2018-09-22T09:09:46.392Z,15.69
2018-09-22T09:10:54.347Z,15.68
2018-09-22T09:11:59.837Z,15.61
2018-09-22T09:13:05.803Z,15.67
2018-09-22T09:14:12.316Z,15.73
2018-09-22T09:15:19.282Z,15.79
2018-09-22T09:16:25.692Z,15.91
2018-09-22T09:17:31.673Z,16.05
2018-09-22T09:18:38.640Z,16.16
2018-09-22T09:19:45.113Z,16.31
2018-09-22T09:20:51.089Z,16.44
2018-09-22T09:21:57.578Z,16.53
2018-09-22T09:23:04.059Z,16.63
2018-09-22T09:24:10.520Z,16.79
2018-09-22T09:25:17.506Z,16.85
2018-09-22T09:26:23.502Z,16.93
2018-09-22T09:27:30.050Z,17.03
2018-09-22T09:28:36.967Z,17.14
2018-09-22T09:29:42.979Z,17.26
2018-09-22T09:30:49.466Z,17.29
2018-09-22T09:31:55.974Z,17.28
2018-09-22T09:33:02.481Z,17.15
2018-09-22T09:34:09.487Z,17.21
2018-09-22T09:35:16.049Z,17.37
2018-09-22T09:36:22.509Z,17.43
2018-09-22T09:37:28.556Z,17.59
2018-09-22T09:38:36.043Z,17.56
2018-09-22T09:39:41.638Z,17.36
2018-09-22T09:40:48.640Z,17.39
2018-09-22T09:41:54.681Z,17.33
2018-09-22T09:43:01.726Z,17.18
2018-09-22T09:44:08.251Z,17.03
2018-09-22T09:45:15.787Z,17.05
2018-09-22T09:46:20.847Z,16.96
2018-09-22T09:47:27.366Z,16.92
2018-09-22T09:48:33.918Z,16.91
2018-09-22T09:49:40.928Z,16.88
2018-09-22T09:50:47.465Z,16.89
2018-09-22T09:51:53.638Z,16.83
2018-09-22T09:53:00.533Z,16.78
2018-09-22T09:54:07.068Z,16.81
2018-09-22T09:55:13.581Z,16.88
2018-09-22T09:56:20.128Z,16.89
2018-09-22T09:57:26.650Z,16.84
2018-09-22T09:58:32.701Z,16.78
2018-09-22T09:59:39.728Z,16.76
2018-09-22T10:00:46.251Z,16.73
2018-09-22T10:01:52.790Z,16.59
2018-09-22T10:02:59.317Z,16.52
2018-09-22T10:04:05.835Z,16.48
2018-09-22T10:05:12.351Z,16.43
2018-09-22T10:06:18.374Z,16.44
2018-09-22T10:07:24.892Z,16.44
2018-09-22T10:08:31.895Z,16.37
2018-09-22T10:09:38.411Z,16.29
2018-09-22T10:10:44.909Z,16.26
2018-09-22T10:11:51.497Z,16.25
2018-09-22T10:12:57.930Z,16.27
2018-09-22T10:14:03.976Z,16.36
2018-09-22T10:15:10.956Z,16.55
2018-09-22T10:16:16.992Z,16.75
2018-09-22T10:17:24.007Z,16.94
2018-09-22T10:18:30.033Z,17.12
2018-09-22T10:19:36.562Z,17.32
2018-09-22T10:20:43.614Z,17.51
2018-09-22T10:21:50.206Z,17.62
2018-09-22T10:22:56.193Z,17.69
2018-09-22T10:24:03.294Z,17.74
2018-09-22T10:25:09.304Z,17.77
2018-09-22T10:26:16.350Z,17.95
2018-09-22T10:27:22.926Z,18.13
2018-09-22T10:28:29.576Z,18.38
2018-09-22T10:29:35.594Z,18.64
2018-09-22T10:30:42.712Z,18.79
2018-09-22T10:31:50.275Z,18.95
2018-09-22T10:32:55.375Z,19.21
2018-09-22T10:34:01.983Z,19.44
2018-09-22T10:35:09.103Z,19.54
2018-09-22T10:36:15.709Z,19.67
2018-09-22T10:37:22.337Z,19.55
2018-09-22T10:38:28.954Z,19.45
2018-09-22T10:39:35.602Z,19.52
2018-09-22T10:40:42.187Z,19.64
2018-09-22T10:41:48.822Z,19.76
2018-09-22T10:42:55.449Z,19.83
2018-09-22T10:44:02.104Z,19.85
2018-09-22T10:45:08.721Z,19.66
2018-09-22T10:46:15.375Z,19.56
2018-09-22T10:47:21.486Z,19.43
2018-09-22T10:48:28.616Z,19.31
2018-09-22T10:49:34.758Z,19.14
2018-09-22T10:50:41.886Z,19.20
2018-09-22T10:51:48.547Z,19.20
2018-09-22T10:52:54.718Z,19.31
2018-09-22T10:54:01.304Z,19.43
2018-09-22T10:55:08.428Z,19.47
2018-09-22T10:56:15.056Z,19.54
2018-09-22T10:57:21.706Z,19.64
2018-09-22T10:58:27.852Z,19.53
2018-09-22T10:59:34.979Z,19.58
2018-09-22T11:00:41.146Z,19.60
2018-09-22T11:01:48.252Z,19.67
2018-09-22T11:02:54.904Z,19.61
2018-09-22T11:04:02.042Z,19.77
2018-09-22T11:05:08.190Z,19.91
2018-09-22T11:06:14.524Z,19.80
2018-09-22T11:07:21.457Z,19.82
2018-09-22T11:08:27.628Z,19.81
2018-09-22T11:09:34.752Z,19.82
2018-09-22T11:10:41.399Z,19.90
2018-09-22T11:11:47.535Z,20.09
2018-09-22T11:12:54.666Z,20.12
2018-09-22T11:14:00.831Z,20.13
2018-09-22T11:15:07.976Z,19.95
2018-09-22T11:16:14.631Z,20.03
2018-09-22T11:17:21.302Z,20.04
2018-09-22T11:18:27.953Z,19.94
2018-09-22T11:19:34.634Z,19.92
2018-09-22T11:20:41.292Z,20.03
2018-09-22T11:21:47.978Z,20.02
2018-09-22T11:22:54.175Z,20.06
2018-09-22T11:24:01.363Z,20.07
2018-09-22T11:25:08.065Z,20.29
2018-09-22T11:26:14.764Z,20.34
2018-09-22T11:27:21.480Z,20.53
2018-09-22T11:28:28.204Z,20.62
2018-09-22T11:29:34.927Z,20.55
2018-09-22T11:30:41.651Z,20.41
2018-09-22T11:31:48.397Z,20.53
2018-09-22T11:32:55.128Z,20.54
2018-09-22T11:34:01.883Z,20.63
2018-09-22T11:35:08.635Z,20.80
2018-09-22T11:36:15.419Z,20.69
2018-09-22T11:37:21.741Z,20.61
2018-09-22T11:38:29.208Z,20.79
2018-09-22T11:39:35.837Z,20.87
2018-09-22T11:40:42.640Z,20.82
2018-09-22T11:41:49.462Z,20.96
2018-09-22T11:42:56.275Z,21.06
2018-09-22T11:44:03.070Z,21.04
2018-09-22T11:45:09.841Z,21.00
2018-09-22T11:46:16.662Z,20.97
2018-09-22T11:47:23.375Z,20.94
2018-09-22T11:48:30.141Z,20.87
2018-09-22T11:49:36.880Z,20.93
2018-09-22T11:50:43.628Z,21.12
2018-09-22T11:51:50.364Z,21.28
2018-09-22T11:52:57.132Z,21.37
2018-09-22T11:54:03.871Z,21.43
2018-09-22T11:55:10.633Z,21.24
2018-09-22T11:56:17.362Z,20.96
2018-09-22T11:57:23.610Z,20.88
2018-09-22T11:58:30.830Z,20.90
2018-09-22T11:59:37.581Z,20.85
2018-09-22T12:00:44.313Z,20.71
2018-09-22T12:01:51.008Z,20.70
2018-09-22T12:02:57.702Z,20.52
2018-09-22T12:04:04.452Z,20.45
2018-09-22T12:05:11.149Z,20.44
2018-09-22T12:06:17.432Z,20.21
2018-09-22T12:07:24.582Z,20.34
2018-09-22T12:08:30.822Z,20.57
2018-09-22T12:09:38.095Z,21.11
2018-09-22T12:10:44.343Z,21.38
2018-09-22T12:11:51.625Z,21.64
2018-09-22T12:12:58.401Z,21.77
2018-09-22T12:14:04.697Z,21.80
2018-09-22T12:15:11.974Z,21.92
2018-09-22T12:16:18.779Z,21.76
2018-09-22T12:17:25.528Z,21.90
2018-09-22T12:18:32.324Z,22.00
2018-09-22T12:19:38.630Z,22.04
2018-09-22T12:20:45.428Z,21.93
2018-09-22T12:21:52.225Z,21.65
2018-09-22T12:22:59.528Z,21.76
2018-09-22T12:24:05.825Z,21.59
2018-09-22T12:25:13.105Z,21.39
2018-09-22T12:26:19.850Z,21.34
2018-09-22T12:27:26.610Z,21.32
2018-09-22T12:28:33.365Z,21.12
2018-09-22T12:29:40.124Z,21.04
2018-09-22T12:30:46.841Z,21.13
2018-09-22T12:31:53.597Z,21.26
2018-09-22T12:32:59.841Z,21.31
2018-09-22T12:34:07.094Z,21.35
2018-09-22T12:35:13.348Z,21.48
2018-09-22T12:36:20.610Z,21.62
2018-09-22T12:37:27.377Z,21.78
2018-09-22T12:38:33.663Z,21.63
2018-09-22T12:39:40.935Z,21.70
2018-09-22T12:40:47.202Z,21.67
2018-09-22T12:41:54.462Z,21.56
2018-09-22T12:43:00.734Z,21.39
2018-09-22T12:44:07.952Z,21.21
2018-09-22T12:45:14.303Z,20.94
2018-09-22T12:46:21.423Z,20.79
2018-09-22T12:47:28.162Z,20.71
2018-09-22T12:48:34.882Z,20.51
2018-09-22T12:49:41.640Z,20.36
2018-09-22T12:50:48.329Z,20.24
2018-09-22T12:51:55.051Z,20.17
2018-09-22T12:53:01.746Z,20.06
2018-09-22T12:54:08.451Z,19.80
2018-09-22T12:55:15.122Z,19.43
2018-09-22T12:56:21.298Z,19.24
2018-09-22T12:57:28.462Z,19.12
2018-09-22T12:58:35.102Z,19.06
2018-09-22T12:59:41.257Z,18.90
2018-09-22T13:00:48.381Z,18.89
2018-09-22T13:01:55.022Z,19.07
2018-09-22T13:03:01.167Z,19.21
2018-09-22T13:04:08.293Z,19.40
2018-09-22T13:05:14.946Z,19.57
2018-09-22T13:06:21.584Z,19.75
2018-09-22T13:07:27.739Z,19.94
2018-09-22T13:08:34.871Z,20.06
2018-09-22T13:09:41.519Z,20.09
2018-09-22T13:10:48.145Z,19.98
2018-09-22T13:11:54.784Z,19.79
2018-09-22T13:13:00.923Z,19.86
2018-09-22T13:14:08.058Z,19.86
2018-09-22T13:15:14.689Z,19.84
2018-09-22T13:16:20.818Z,19.83
2018-09-22T13:17:27.951Z,19.83
2018-09-22T13:18:34.576Z,19.70
2018-09-22T13:19:41.194Z,19.68
2018-09-22T13:20:47.322Z,19.59
2018-09-22T13:21:53.936Z,19.44
2018-09-22T13:23:01.032Z,19.34
2018-09-22T13:24:07.169Z,19.16
2018-09-22T13:25:14.297Z,19.08
2018-09-22T13:26:20.337Z,18.84
2018-09-22T13:27:26.920Z,18.73
2018-09-22T13:28:34.497Z,18.62
2018-09-22T13:29:40.569Z,18.54
2018-09-22T13:30:47.147Z,18.59
2018-09-22T13:31:53.712Z,18.70
2018-09-22T13:33:00.284Z,18.96
2018-09-22T13:34:06.377Z,19.16
2018-09-22T13:35:13.463Z,19.45
2018-09-22T13:36:20.054Z,19.71
2018-09-22T13:37:26.641Z,19.90
2018-09-22T13:38:33.346Z,20.03
2018-09-22T13:39:39.839Z,20.02
2018-09-22T13:40:46.438Z,19.82
2018-09-22T13:41:53.018Z,19.49
2018-09-22T13:42:59.607Z,19.20
2018-09-22T13:44:06.185Z,19.04
2018-09-22T13:45:12.744Z,18.78
2018-09-22T13:46:19.329Z,18.61
2018-09-22T13:47:25.381Z,18.45
2018-09-22T13:48:32.432Z,18.25
2018-09-22T13:49:38.993Z,18.09
2018-09-22T13:50:45.082Z,17.95
2018-09-22T13:51:51.566Z,17.85
2018-09-22T13:52:58.596Z,17.74
2018-09-22T13:54:05.116Z,17.59
2018-09-22T13:55:11.649Z,17.56
2018-09-22T13:56:18.180Z,17.50
2018-09-22T13:57:24.676Z,17.43
2018-09-22T13:58:31.275Z,17.25
2018-09-22T13:59:37.294Z,17.04
2018-09-22T14:00:44.191Z,16.85
2018-09-22T14:01:50.713Z,16.68
2018-09-22T14:02:57.276Z,16.55
2018-09-22T14:04:03.653Z,16.49
2018-09-22T14:05:09.640Z,16.51
2018-09-22T14:06:16.619Z,16.67
2018-09-22T14:07:23.110Z,16.93
2018-09-22T14:08:29.581Z,17.20
2018-09-22T14:09:35.568Z,17.54
2018-09-22T14:10:42.063Z,17.92
2018-09-22T14:11:49.068Z,18.22
2018-09-22T14:12:55.570Z,18.51
2018-09-22T14:14:02.089Z,18.65
2018-09-22T14:15:08.585Z,18.65
2018-09-22T14:16:15.120Z,18.75
2018-09-22T14:17:21.634Z,18.76
2018-09-22T14:18:28.186Z,18.71
2018-09-22T14:19:34.678Z,18.57
2018-09-22T14:20:41.280Z,18.47
2018-09-22T14:21:47.219Z,18.42
2018-09-22T14:22:54.236Z,18.43
2018-09-22T14:24:00.802Z,18.44
2018-09-22T14:25:06.790Z,18.44
2018-09-22T14:26:13.325Z,18.43
2018-09-22T14:27:19.870Z,18.43
2018-09-22T14:28:26.881Z,18.39